KRDM/RDM METAR and TAF weather

Enter ICAO airport designator
Station Type Date Time Source
KRDM METAR 2022/01/25 04:56 UTC NOAA

KRDM 250456Z 30004KT 10SM CLR 03/M03 A3027 RMK AO2 SLP265 T00281028 PNO $


Station Type Date Time Source
KRDM Decoded METAR 2022/01/25 04:56 UTC NOAA

REDMOND ROBERTS FIELD, OR, United States (KRDM) 44-15N 121-08W
Jan 24, 2022 - 11:56 PM EST / 2022.01.25 0456 UTC
Wind: from the WNW (300 degrees) at 5 MPH (4 KT):0
Visibility: 10 mile(s):0
Sky conditions: clear
Temperature: 37.0 F (2.8 C)
Dew Point: 27.0 F (-2.8 C)
Relative Humidity: 66%
Pressure (altimeter): 30.27 in. Hg (1025 hPa)
ob: KRDM 250456Z 30004KT 10SM CLR 03/M03 A3027 RMK AO2 SLP265 T00281028 PNO
cycle: 5

Station Type Date Time Source
KRDM TAF 2022/01/24 18:27 UTC NOAA

TAF KRDM 241720Z 2418/2518 34005KT P6SM SKC
FM250700 VRB03KT 4SM BR SCT005
FM251200 13003KT P6SM SKC

Example: see airport list